sensor_id;sensor_type;location;lat;lon;timestamp;pressure;altitude;pressure_sealevel;temperature;humidity
60719;BME280;46567;51.660;5.824;2023-04-19T00:00:45;102620.0;;;11.1;77.0
60719;BME280;46567;51.660;5.824;2023-04-19T00:05:45;102610.0;;;11.2;77.0
60719;BME280;46567;51.660;5.824;2023-04-19T00:10:45;102610.0;;;11.2;77.5
60719;BME280;46567;51.660;5.824;2023-04-19T00:15:45;102610.0;;;11.2;78.0
60719;BME280;46567;51.660;5.824;2023-04-19T00:20:45;102600.0;;;11.2;78.0
60719;BME280;46567;51.660;5.824;2023-04-19T00:25:47;102590.0;;;11.2;78.5
60719;BME280;46567;51.660;5.824;2023-04-19T00:30:45;102590.0;;;11.2;78.5
60719;BME280;46567;51.660;5.824;2023-04-19T00:35:45;102590.0;;;11.2;78.5
60719;BME280;46567;51.660;5.824;2023-04-19T00:40:45;102590.0;;;11.2;78.5
60719;BME280;46567;51.660;5.824;2023-04-19T00:45:46;102590.0;;;11.2;79.0
60719;BME280;46567;51.660;5.824;2023-04-19T00:50:45;102590.0;;;11.2;79.0
60719;BME280;46567;51.660;5.824;2023-04-19T00:55:45;102580.0;;;11.2;79.5
60719;BME280;46567;51.660;5.824;2023-04-19T01:00:45;102580.0;;;11.2;79.5
60719;BME280;46567;51.660;5.824;2023-04-19T01:05:45;102570.0;;;11.3;79.5
60719;BME280;46567;51.660;5.824;2023-04-19T01:10:45;102570.0;;;11.3;79.5
60719;BME280;46567;51.660;5.824;2023-04-19T01:15:45;102550.0;;;11.4;79.5
60719;BME280;46567;51.660;5.824;2023-04-19T01:20:45;102560.0;;;11.6;79.0
60719;BME280;46567;51.660;5.824;2023-04-19T01:25:45;102560.0;;;11.6;79.0
60719;BME280;46567;51.660;5.824;2023-04-19T01:30:45;102560.0;;;11.8;79.0
60719;BME280;46567;51.660;5.824;2023-04-19T01:35:45;102560.0;;;11.8;78.5
60719;BME280;46567;51.660;5.824;2023-04-19T01:40:45;102560.0;;;11.9;78.5
60719;BME280;46567;51.660;5.824;2023-04-19T01:45:45;102550.0;;;11.9;79.0
60719;BME280;46567;51.660;5.824;2023-04-19T01:50:45;102550.0;;;11.9;79.0
60719;BME280;46567;51.660;5.824;2023-04-19T01:55:45;102560.0;;;11.8;79.5
60719;BME280;46567;51.660;5.824;2023-04-19T02:00:45;102560.0;;;11.7;80.0
60719;BME280;46567;51.660;5.824;2023-04-19T02:05:45;102550.0;;;11.6;80.0
60719;BME280;46567;51.660;5.824;2023-04-19T02:10:45;102560.0;;;11.6;80.5
60719;BME280;46567;51.660;5.824;2023-04-19T02:15:45;102560.0;;;11.6;81.0
60719;BME280;46567;51.660;5.824;2023-04-19T02:20:45;102560.0;;;11.5;81.5
60719;BME280;46567;51.660;5.824;2023-04-19T02:25:45;102550.0;;;11.5;81.5
60719;BME280;46567;51.660;5.824;2023-04-19T02:30:45;102550.0;;;11.4;81.5
60719;BME280;46567;51.660;5.824;2023-04-19T02:35:45;102550.0;;;11.5;81.0
60719;BME280;46567;51.660;5.824;2023-04-19T02:40:45;102560.0;;;11.5;81.5
60719;BME280;46567;51.660;5.824;2023-04-19T02:45:45;102550.0;;;11.4;81.5
60719;BME280;46567;51.660;5.824;2023-04-19T02:50:45;102550.0;;;11.4;82.0
60719;BME280;46567;51.660;5.824;2023-04-19T02:55:45;102550.0;;;11.4;82.0
60719;BME280;46567;51.660;5.824;2023-04-19T03:00:45;102560.0;;;11.5;81.5
60719;BME280;46567;51.660;5.824;2023-04-19T03:05:45;102560.0;;;11.6;81.0
60719;BME280;46567;51.660;5.824;2023-04-19T03:10:45;102560.0;;;11.5;80.5
60719;BME280;46567;51.660;5.824;2023-04-19T03:15:45;102550.0;;;11.5;80.5
60719;BME280;46567;51.660;5.824;2023-04-19T03:20:45;102560.0;;;11.5;80.5
60719;BME280;46567;51.660;5.824;2023-04-19T03:25:45;102550.0;;;11.5;80.5
60719;BME280;46567;51.660;5.824;2023-04-19T03:30:45;102550.0;;;11.5;79.5
60719;BME280;46567;51.660;5.824;2023-04-19T03:35:45;102550.0;;;11.5;80.0
60719;BME280;46567;51.660;5.824;2023-04-19T03:40:45;102540.0;;;11.3;80.5
60719;BME280;46567;51.660;5.824;2023-04-19T03:45:45;102550.0;;;11.2;80.5
60719;BME280;46567;51.660;5.824;2023-04-19T03:50:45;102550.0;;;11.0;81.0
60719;BME280;46567;51.660;5.824;2023-04-19T03:55:45;102550.0;;;10.8;81.0
60719;BME280;46567;51.660;5.824;2023-04-19T04:00:45;102560.0;;;10.8;81.0
60719;BME280;46567;51.660;5.824;2023-04-19T04:05:45;102560.0;;;10.7;80.5
60719;BME280;46567;51.660;5.824;2023-04-19T04:10:45;102560.0;;;10.7;80.0
60719;BME280;46567;51.660;5.824;2023-04-19T04:15:45;102570.0;;;10.6;80.0
60719;BME280;46567;51.660;5.824;2023-04-19T04:20:45;102560.0;;;10.6;79.5
60719;BME280;46567;51.660;5.824;2023-04-19T04:25:45;102570.0;;;10.5;79.5
60719;BME280;46567;51.660;5.824;2023-04-19T04:30:45;102560.0;;;10.4;79.5
60719;BME280;46567;51.660;5.824;2023-04-19T04:35:45;102560.0;;;10.4;79.5
60719;BME280;46567;51.660;5.824;2023-04-19T04:40:48;102560.0;;;10.3;79.5
60719;BME280;46567;51.660;5.824;2023-04-19T04:45:45;102560.0;;;10.4;79.0
60719;BME280;46567;51.660;5.824;2023-04-19T04:50:45;102560.0;;;10.4;79.0
60719;BME280;46567;51.660;5.824;2023-04-19T04:55:45;102550.0;;;10.4;78.5
60719;BME280;46567;51.660;5.824;2023-04-19T05:00:45;102560.0;;;10.2;78.5
60719;BME280;46567;51.660;5.824;2023-04-19T05:05:45;102550.0;;;10.0;79.5
60719;BME280;46567;51.660;5.824;2023-04-19T05:10:45;102560.0;;;10.0;79.5
60719;BME280;46567;51.660;5.824;2023-04-19T05:15:45;102560.0;;;10.1;79.0
60719;BME280;46567;51.660;5.824;2023-04-19T05:20:45;102580.0;;;10.2;78.0
60719;BME280;46567;51.660;5.824;2023-04-19T05:25:45;102570.0;;;10.2;77.0
60719;BME280;46567;51.660;5.824;2023-04-19T05:30:45;102580.0;;;10.3;75.5
60719;BME280;46567;51.660;5.824;2023-04-19T05:35:45;102570.0;;;10.3;74.5
60719;BME280;46567;51.660;5.824;2023-04-19T05:40:45;102570.0;;;10.3;73.5
60719;BME280;46567;51.660;5.824;2023-04-19T05:45:45;102570.0;;;10.3;72.0
60719;BME280;46567;51.660;5.824;2023-04-19T05:50:45;102580.0;;;10.4;71.5
60719;BME280;46567;51.660;5.824;2023-04-19T05:55:45;102570.0;;;10.4;70.5
60719;BME280;46567;51.660;5.824;2023-04-19T06:00:45;102570.0;;;10.4;71.0
60719;BME280;46567;51.660;5.824;2023-04-19T06:05:45;102570.0;;;10.4;70.5
60719;BME280;46567;51.660;5.824;2023-04-19T06:10:45;102570.0;;;10.4;70.0
60719;BME280;46567;51.660;5.824;2023-04-19T06:15:45;102570.0;;;10.4;69.0
60719;BME280;46567;51.660;5.824;2023-04-19T06:20:45;102570.0;;;10.4;68.5
60719;BME280;46567;51.660;5.824;2023-04-19T06:25:45;102580.0;;;10.5;66.5
60719;BME280;46567;51.660;5.824;2023-04-19T06:30:45;102570.0;;;10.6;67.5
60719;BME280;46567;51.660;5.824;2023-04-19T06:35:45;102580.0;;;10.7;66.5
60719;BME280;46567;51.660;5.824;2023-04-19T06:40:45;102580.0;;;10.8;64.5
60719;BME280;46567;51.660;5.824;2023-04-19T06:45:45;102580.0;;;10.9;63.5
60719;BME280;46567;51.660;5.824;2023-04-19T06:50:45;102580.0;;;11.1;62.5
60719;BME280;46567;51.660;5.824;2023-04-19T06:55:45;102580.0;;;11.3;62.5
60719;BME280;46567;51.660;5.824;2023-04-19T07:00:45;102570.0;;;11.4;60.0
60719;BME280;46567;51.660;5.824;2023-04-19T07:05:45;102570.0;;;11.6;60.0
60719;BME280;46567;51.660;5.824;2023-04-19T07:10:45;102570.0;;;11.8;58.5
60719;BME280;46567;51.660;5.824;2023-04-19T07:15:45;102580.0;;;12.0;57.5
60719;BME280;46567;51.660;5.824;2023-04-19T07:20:45;102570.0;;;12.1;56.0
60719;BME280;46567;51.660;5.824;2023-04-19T07:25:45;102560.0;;;12.1;55.5
60719;BME280;46567;51.660;5.824;2023-04-19T07:30:45;102570.0;;;12.0;53.0
60719;BME280;46567;51.660;5.824;2023-04-19T07:35:45;102570.0;;;12.1;52.5
60719;BME280;46567;51.660;5.824;2023-04-19T07:40:45;102590.0;;;12.2;52.5
60719;BME280;46567;51.660;5.824;2023-04-19T07:45:45;102580.0;;;12.3;52.0
60719;BME280;46567;51.660;5.824;2023-04-19T07:50:45;102580.0;;;12.4;50.5
60719;BME280;46567;51.660;5.824;2023-04-19T07:55:45;102580.0;;;12.6;49.5
60719;BME280;46567;51.660;5.824;2023-04-19T08:00:45;102580.0;;;12.8;47.5
60719;BME280;46567;51.660;5.824;2023-04-19T08:05:45;102570.0;;;12.8;48.0
60719;BME280;46567;51.660;5.824;2023-04-19T08:10:45;102580.0;;;12.9;49.0
60719;BME280;46567;51.660;5.824;2023-04-19T08:15:45;102580.0;;;13.1;46.5
60719;BME280;46567;51.660;5.824;2023-04-19T08:20:45;102570.0;;;13.1;45.5
60719;BME280;46567;51.660;5.824;2023-04-19T08:25:45;102570.0;;;13.3;47.0
60719;BME280;46567;51.660;5.824;2023-04-19T08:30:45;102560.0;;;13.4;45.0
60719;BME280;46567;51.660;5.824;2023-04-19T08:35:45;102570.0;;;13.4;43.5
60719;BME280;46567;51.660;5.824;2023-04-19T08:40:50;102570.0;;;13.5;43.5
60719;BME280;46567;51.660;5.824;2023-04-19T08:45:45;102570.0;;;13.6;43.5
60719;BME280;46567;51.660;5.824;2023-04-19T08:50:45;102570.0;;;13.5;42.5
60719;BME280;46567;51.660;5.824;2023-04-19T08:55:45;102560.0;;;13.4;43.5
60719;BME280;46567;51.660;5.824;2023-04-19T09:00:45;102560.0;;;13.6;45.5
60719;BME280;46567;51.660;5.824;2023-04-19T09:05:45;102550.0;;;13.7;45.0
60719;BME280;46567;51.660;5.824;2023-04-19T09:10:54;102550.0;;;13.6;43.5
60719;BME280;46567;51.660;5.824;2023-04-19T09:15:45;102550.0;;;13.7;44.0
60719;BME280;46567;51.660;5.824;2023-04-19T09:20:45;102540.0;;;13.7;44.5
60719;BME280;46567;51.660;5.824;2023-04-19T09:25:52;102550.0;;;13.9;44.5
60719;BME280;46567;51.660;5.824;2023-04-19T09:30:45;102550.0;;;14.0;43.0
60719;BME280;46567;51.660;5.824;2023-04-19T09:35:45;102540.0;;;14.0;44.0
60719;BME280;46567;51.660;5.824;2023-04-19T09:40:45;102550.0;;;14.1;42.5
60719;BME280;46567;51.660;5.824;2023-04-19T09:45:45;102540.0;;;14.3;43.0
60719;BME280;46567;51.660;5.824;2023-04-19T09:50:53;102540.0;;;14.4;41.5
60719;BME280;46567;51.660;5.824;2023-04-19T09:55:45;102530.0;;;14.5;40.0
60719;BME280;46567;51.660;5.824;2023-04-19T10:00:47;102540.0;;;14.6;40.0
60719;BME280;46567;51.660;5.824;2023-04-19T10:05:45;102540.0;;;14.4;38.5
60719;BME280;46567;51.660;5.824;2023-04-19T10:10:45;102540.0;;;14.3;37.5
60719;BME280;46567;51.660;5.824;2023-04-19T10:15:45;102530.0;;;14.2;37.5
60719;BME280;46567;51.660;5.824;2023-04-19T10:20:50;102530.0;;;14.3;37.0
60719;BME280;46567;51.660;5.824;2023-04-19T10:25:46;102530.0;;;14.4;38.0
60719;BME280;46567;51.660;5.824;2023-04-19T10:30:52;102530.0;;;14.5;38.5
60719;BME280;46567;51.660;5.824;2023-04-19T10:35:45;102530.0;;;14.3;39.0
60719;BME280;46567;51.660;5.824;2023-04-19T10:41:01;102530.0;;;14.3;39.0
60719;BME280;46567;51.660;5.824;2023-04-19T10:45:45;102520.0;;;14.3;40.5
60719;BME280;46567;51.660;5.824;2023-04-19T10:50:57;102510.0;;;14.4;40.0
60719;BME280;46567;51.660;5.824;2023-04-19T10:55:49;102510.0;;;14.6;38.0
60719;BME280;46567;51.660;5.824;2023-04-19T11:00:45;102500.0;;;14.5;38.5
60719;BME280;46567;51.660;5.824;2023-04-19T11:06:18;102500.0;;;14.7;37.5
60719;BME280;46567;51.660;5.824;2023-04-19T11:10:45;102480.0;;;14.7;38.0
60719;BME280;46567;51.660;5.824;2023-04-19T11:15:45;102490.0;;;14.9;36.0
60719;BME280;46567;51.660;5.824;2023-04-19T11:20:51;102480.0;;;15.0;37.0
60719;BME280;46567;51.660;5.824;2023-04-19T11:25:45;102480.0;;;15.3;36.5
60719;BME280;46567;51.660;5.824;2023-04-19T11:30:46;102470.0;;;15.3;34.5
60719;BME280;46567;51.660;5.824;2023-04-19T11:35:45;102470.0;;;15.3;36.0
60719;BME280;46567;51.660;5.824;2023-04-19T11:40:45;102450.0;;;15.4;34.0
60719;BME280;46567;51.660;5.824;2023-04-19T11:45:45;102440.0;;;15.5;33.5
60719;BME280;46567;51.660;5.824;2023-04-19T11:50:45;102440.0;;;15.6;33.0
60719;BME280;46567;51.660;5.824;2023-04-19T11:55:48;102450.0;;;15.7;31.5
60719;BME280;46567;51.660;5.824;2023-04-19T12:00:45;102430.0;;;15.6;31.5
60719;BME280;46567;51.660;5.824;2023-04-19T12:05:51;102430.0;;;15.7;31.5
60719;BME280;46567;51.660;5.824;2023-04-19T12:10:55;102430.0;;;15.8;30.5
60719;BME280;46567;51.660;5.824;2023-04-19T12:15:45;102410.0;;;15.7;29.5
60719;BME280;46567;51.660;5.824;2023-04-19T12:20:47;102400.0;;;16.1;30.5
60719;BME280;46567;51.660;5.824;2023-04-19T12:25:47;102400.0;;;16.2;30.5
60719;BME280;46567;51.660;5.824;2023-04-19T12:30:45;102400.0;;;16.3;29.5
60719;BME280;46567;51.660;5.824;2023-04-19T12:35:45;102400.0;;;16.2;29.0
60719;BME280;46567;51.660;5.824;2023-04-19T12:40:45;102380.0;;;16.5;30.0
60719;BME280;46567;51.660;5.824;2023-04-19T12:45:45;102380.0;;;16.6;29.5
60719;BME280;46567;51.660;5.824;2023-04-19T12:50:45;102370.0;;;16.6;29.0
60719;BME280;46567;51.660;5.824;2023-04-19T12:55:45;102360.0;;;16.6;31.0
60719;BME280;46567;51.660;5.824;2023-04-19T13:00:45;102360.0;;;16.9;29.0
60719;BME280;46567;51.660;5.824;2023-04-19T13:05:45;102350.0;;;16.6;29.0
60719;BME280;46567;51.660;5.824;2023-04-19T13:10:45;102340.0;;;16.3;30.0
60719;BME280;46567;51.660;5.824;2023-04-19T13:15:45;102340.0;;;16.6;30.0
60719;BME280;46567;51.660;5.824;2023-04-19T13:20:45;102330.0;;;16.7;29.5
60719;BME280;46567;51.660;5.824;2023-04-19T13:25:45;102340.0;;;16.9;31.0
60719;BME280;46567;51.660;5.824;2023-04-19T13:30:45;102330.0;;;17.0;30.0
60719;BME280;46567;51.660;5.824;2023-04-19T13:35:45;102320.0;;;17.1;30.5
60719;BME280;46567;51.660;5.824;2023-04-19T13:40:45;102310.0;;;17.3;31.0
60719;BME280;46567;51.660;5.824;2023-04-19T13:45:45;102300.0;;;17.5;30.5
60719;BME280;46567;51.660;5.824;2023-04-19T13:50:45;102310.0;;;17.4;30.5
60719;BME280;46567;51.660;5.824;2023-04-19T13:55:45;102290.0;;;17.5;30.0
60719;BME280;46567;51.660;5.824;2023-04-19T14:00:46;102290.0;;;17.5;29.0
60719;BME280;46567;51.660;5.824;2023-04-19T14:05:45;102280.0;;;17.2;29.5
60719;BME280;46567;51.660;5.824;2023-04-19T14:10:45;102270.0;;;17.4;30.5
60719;BME280;46567;51.660;5.824;2023-04-19T14:15:45;102280.0;;;17.8;30.5
60719;BME280;46567;51.660;5.824;2023-04-19T14:20:45;102270.0;;;18.0;30.0
60719;BME280;46567;51.660;5.824;2023-04-19T14:25:45;102250.0;;;18.1;31.0
60719;BME280;46567;51.660;5.824;2023-04-19T14:30:45;102240.0;;;18.1;30.0
60719;BME280;46567;51.660;5.824;2023-04-19T14:35:45;102240.0;;;17.9;30.0
60719;BME280;46567;51.660;5.824;2023-04-19T14:40:45;102250.0;;;17.9;30.0
60719;BME280;46567;51.660;5.824;2023-04-19T14:45:47;102230.0;;;18.1;30.0
60719;BME280;46567;51.660;5.824;2023-04-19T14:50:45;102220.0;;;18.0;30.0
60719;BME280;46567;51.660;5.824;2023-04-19T14:55:45;102220.0;;;17.7;31.0
60719;BME280;46567;51.660;5.824;2023-04-19T15:00:45;102230.0;;;17.6;30.5
60719;BME280;46567;51.660;5.824;2023-04-19T15:05:45;102210.0;;;17.7;30.0
60719;BME280;46567;51.660;5.824;2023-04-19T15:10:45;102210.0;;;17.8;31.0
60719;BME280;46567;51.660;5.824;2023-04-19T15:15:45;102210.0;;;18.1;31.0
60719;BME280;46567;51.660;5.824;2023-04-19T15:20:45;102190.0;;;18.0;30.0
60719;BME280;46567;51.660;5.824;2023-04-19T15:25:45;102200.0;;;17.9;31.0
60719;BME280;46567;51.660;5.824;2023-04-19T15:30:45;102190.0;;;17.8;31.0
60719;BME280;46567;51.660;5.824;2023-04-19T15:35:49;102170.0;;;17.9;32.0
60719;BME280;46567;51.660;5.824;2023-04-19T15:40:45;102190.0;;;18.2;31.0
60719;BME280;46567;51.660;5.824;2023-04-19T15:45:45;102180.0;;;18.0;31.5
60719;BME280;46567;51.660;5.824;2023-04-19T15:50:45;102180.0;;;17.8;31.5
60719;BME280;46567;51.660;5.824;2023-04-19T15:55:45;102190.0;;;17.8;33.0
60719;BME280;46567;51.660;5.824;2023-04-19T16:00:45;102170.0;;;17.6;31.0
60719;BME280;46567;51.660;5.824;2023-04-19T16:05:45;102170.0;;;17.3;32.0
60719;BME280;46567;51.660;5.824;2023-04-19T16:10:46;102170.0;;;17.4;31.5
60719;BME280;46567;51.660;5.824;2023-04-19T16:15:45;102160.0;;;17.5;30.0
60719;BME280;46567;51.660;5.824;2023-04-19T16:20:45;102170.0;;;17.5;31.0
60719;BME280;46567;51.660;5.824;2023-04-19T16:25:45;102160.0;;;17.3;30.5
60719;BME280;46567;51.660;5.824;2023-04-19T16:30:45;102160.0;;;17.1;32.0
60719;BME280;46567;51.660;5.824;2023-04-19T16:35:45;102160.0;;;17.2;32.0
60719;BME280;46567;51.660;5.824;2023-04-19T16:40:45;102150.0;;;17.2;32.0
60719;BME280;46567;51.660;5.824;2023-04-19T16:45:45;102160.0;;;17.1;31.0
60719;BME280;46567;51.660;5.824;2023-04-19T16:50:45;102150.0;;;17.0;31.0
60719;BME280;46567;51.660;5.824;2023-04-19T16:55:45;102160.0;;;16.8;31.5
60719;BME280;46567;51.660;5.824;2023-04-19T17:00:45;102150.0;;;16.7;32.5
60719;BME280;46567;51.660;5.824;2023-04-19T17:05:45;102140.0;;;16.6;32.5
60719;BME280;46567;51.660;5.824;2023-04-19T17:10:45;102150.0;;;16.3;32.0
60719;BME280;46567;51.660;5.824;2023-04-19T17:15:45;102150.0;;;16.2;32.5
60719;BME280;46567;51.660;5.824;2023-04-19T17:20:45;102150.0;;;16.1;30.5
60719;BME280;46567;51.660;5.824;2023-04-19T17:25:45;102140.0;;;15.9;30.5
60719;BME280;46567;51.660;5.824;2023-04-19T17:30:45;102150.0;;;15.8;31.5
60719;BME280;46567;51.660;5.824;2023-04-19T17:35:45;102140.0;;;15.6;30.0
60719;BME280;46567;51.660;5.824;2023-04-19T17:40:45;102150.0;;;15.6;29.5
60719;BME280;46567;51.660;5.824;2023-04-19T17:45:45;102150.0;;;15.5;29.5
60719;BME280;46567;51.660;5.824;2023-04-19T17:50:45;102150.0;;;15.4;30.0
60719;BME280;46567;51.660;5.824;2023-04-19T17:55:45;102150.0;;;15.1;30.5
60719;BME280;46567;51.660;5.824;2023-04-19T18:00:45;102150.0;;;14.9;31.5
60719;BME280;46567;51.660;5.824;2023-04-19T18:05:45;102150.0;;;14.7;32.0
60719;BME280;46567;51.660;5.824;2023-04-19T18:10:45;102150.0;;;14.5;32.5
60719;BME280;46567;51.660;5.824;2023-04-19T18:15:45;102150.0;;;14.2;33.5
60719;BME280;46567;51.660;5.824;2023-04-19T18:20:45;102160.0;;;14.0;34.5
60719;BME280;46567;51.660;5.824;2023-04-19T18:25:50;102160.0;;;13.7;35.0
60719;BME280;46567;51.660;5.824;2023-04-19T18:30:45;102170.0;;;13.5;35.5
60719;BME280;46567;51.660;5.824;2023-04-19T18:35:45;102170.0;;;13.2;35.5
60719;BME280;46567;51.660;5.824;2023-04-19T18:40:45;102180.0;;;13.0;35.0
60719;BME280;46567;51.660;5.824;2023-04-19T18:45:51;102190.0;;;12.9;35.0
60719;BME280;46567;51.660;5.824;2023-04-19T18:50:45;102180.0;;;12.7;35.5
60719;BME280;46567;51.660;5.824;2023-04-19T18:55:45;102200.0;;;12.5;35.0
60719;BME280;46567;51.660;5.824;2023-04-19T19:00:45;102200.0;;;12.4;35.5
60719;BME280;46567;51.660;5.824;2023-04-19T19:05:45;102210.0;;;12.3;35.5
60719;BME280;46567;51.660;5.824;2023-04-19T19:10:45;102220.0;;;12.2;35.5
60719;BME280;46567;51.660;5.824;2023-04-19T19:15:45;102210.0;;;12.1;35.5
60719;BME280;46567;51.660;5.824;2023-04-19T19:20:45;102220.0;;;12.0;36.0
60719;BME280;46567;51.660;5.824;2023-04-19T19:25:47;102230.0;;;11.8;36.5
60719;BME280;46567;51.660;5.824;2023-04-19T19:30:45;102230.0;;;11.8;37.0
60719;BME280;46567;51.660;5.824;2023-04-19T19:35:45;102240.0;;;11.7;37.5
60719;BME280;46567;51.660;5.824;2023-04-19T19:40:45;102230.0;;;11.6;38.0
60719;BME280;46567;51.660;5.824;2023-04-19T19:45:45;102250.0;;;11.4;38.0
60719;BME280;46567;51.660;5.824;2023-04-19T19:50:45;102250.0;;;11.3;38.5
60719;BME280;46567;51.660;5.824;2023-04-19T19:55:45;102250.0;;;11.2;39.0
60719;BME280;46567;51.660;5.824;2023-04-19T20:00:45;102260.0;;;11.1;39.5
60719;BME280;46567;51.660;5.824;2023-04-19T20:05:45;102260.0;;;11.0;39.5
60719;BME280;46567;51.660;5.824;2023-04-19T20:10:45;102270.0;;;10.9;39.5
60719;BME280;46567;51.660;5.824;2023-04-19T20:15:45;102270.0;;;10.9;40.0
60719;BME280;46567;51.660;5.824;2023-04-19T20:20:45;102270.0;;;11.0;39.5
60719;BME280;46567;51.660;5.824;2023-04-19T20:25:45;102270.0;;;11.0;39.5
60719;BME280;46567;51.660;5.824;2023-04-19T20:30:45;102270.0;;;10.9;39.0
60719;BME280;46567;51.660;5.824;2023-04-19T20:35:45;102280.0;;;11.0;39.0
60719;BME280;46567;51.660;5.824;2023-04-19T20:40:45;102280.0;;;10.9;39.0
60719;BME280;46567;51.660;5.824;2023-04-19T20:45:45;102270.0;;;10.8;39.0
60719;BME280;46567;51.660;5.824;2023-04-19T20:50:45;102270.0;;;10.7;39.0
60719;BME280;46567;51.660;5.824;2023-04-19T20:55:45;102280.0;;;10.7;39.5
60719;BME280;46567;51.660;5.824;2023-04-19T21:00:45;102270.0;;;10.7;39.5
60719;BME280;46567;51.660;5.824;2023-04-19T21:05:45;102270.0;;;10.6;39.5
60719;BME280;46567;51.660;5.824;2023-04-19T21:10:45;102270.0;;;10.6;39.5
60719;BME280;46567;51.660;5.824;2023-04-19T21:15:45;102260.0;;;10.6;39.5
60719;BME280;46567;51.660;5.824;2023-04-19T21:20:45;102260.0;;;10.6;39.5
60719;BME280;46567;51.660;5.824;2023-04-19T21:25:45;102270.0;;;10.4;39.5
60719;BME280;46567;51.660;5.824;2023-04-19T21:30:45;102270.0;;;10.3;39.5
60719;BME280;46567;51.660;5.824;2023-04-19T21:35:45;102270.0;;;10.3;39.0
60719;BME280;46567;51.660;5.824;2023-04-19T21:40:45;102270.0;;;10.3;39.5
60719;BME280;46567;51.660;5.824;2023-04-19T21:45:45;102260.0;;;10.1;39.0
60719;BME280;46567;51.660;5.824;2023-04-19T21:50:45;102260.0;;;10.1;39.5
60719;BME280;46567;51.660;5.824;2023-04-19T21:55:47;102260.0;;;10.1;39.5
60719;BME280;46567;51.660;5.824;2023-04-19T22:00:46;102260.0;;;10.0;40.0
60719;BME280;46567;51.660;5.824;2023-04-19T22:05:45;102260.0;;;10.0;40.0
60719;BME280;46567;51.660;5.824;2023-04-19T22:10:45;102270.0;;;9.9;40.0
60719;BME280;46567;51.660;5.824;2023-04-19T22:15:45;102260.0;;;9.8;40.0
60719;BME280;46567;51.660;5.824;2023-04-19T22:20:45;102260.0;;;9.7;40.0
60719;BME280;46567;51.660;5.824;2023-04-19T22:25:45;102260.0;;;9.6;40.0
60719;BME280;46567;51.660;5.824;2023-04-19T22:30:45;102270.0;;;9.5;40.0
60719;BME280;46567;51.660;5.824;2023-04-19T22:35:45;102260.0;;;9.5;40.0
60719;BME280;46567;51.660;5.824;2023-04-19T22:40:45;102260.0;;;9.4;39.5
60719;BME280;46567;51.660;5.824;2023-04-19T22:45:45;102260.0;;;9.4;39.5
60719;BME280;46567;51.660;5.824;2023-04-19T22:50:46;102250.0;;;9.3;39.5
60719;BME280;46567;51.660;5.824;2023-04-19T22:55:45;102250.0;;;9.3;40.0
60719;BME280;46567;51.660;5.824;2023-04-19T23:00:45;102240.0;;;9.2;40.0
60719;BME280;46567;51.660;5.824;2023-04-19T23:05:45;102240.0;;;9.0;40.5
60719;BME280;46567;51.660;5.824;2023-04-19T23:10:45;102240.0;;;8.9;41.5
60719;BME280;46567;51.660;5.824;2023-04-19T23:15:46;102240.0;;;8.7;42.0
60719;BME280;46567;51.660;5.824;2023-04-19T23:20:45;102230.0;;;8.5;42.5
60719;BME280;46567;51.660;5.824;2023-04-19T23:25:45;102230.0;;;8.4;43.0
60719;BME280;46567;51.660;5.824;2023-04-19T23:30:45;102220.0;;;8.3;43.5
60719;BME280;46567;51.660;5.824;2023-04-19T23:35:45;102220.0;;;8.2;43.5
60719;BME280;46567;51.660;5.824;2023-04-19T23:40:45;102220.0;;;8.1;44.0
60719;BME280;46567;51.660;5.824;2023-04-19T23:45:45;102220.0;;;7.9;44.0
60719;BME280;46567;51.660;5.824;2023-04-19T23:50:45;102220.0;;;8.0;44.5
60719;BME280;46567;51.660;5.824;2023-04-19T23:55:45;102210.0;;;7.9;44.0
